createdAt,value
2017-03-15T00:00:18.674Z,19.61
2017-03-15T00:01:28.925Z,19.51
2017-03-15T00:02:38.554Z,19.56
2017-03-15T00:03:48.809Z,19.54
2017-03-15T00:04:58.752Z,19.54
2017-03-15T00:06:08.373Z,19.56
2017-03-15T00:07:18.313Z,19.54
2017-03-15T00:08:28.253Z,19.51
2017-03-15T00:09:38.189Z,19.48
2017-03-15T00:10:47.490Z,19.48
2017-03-15T00:11:57.733Z,19.54
2017-03-15T00:13:07.361Z,19.55
2017-03-15T00:14:17.608Z,19.48
2017-03-15T00:15:27.543Z,19.58
2017-03-15T00:16:37.793Z,19.55
2017-03-15T00:17:47.725Z,19.51
2017-03-15T00:18:57.350Z,19.51
2017-03-15T00:20:07.617Z,19.51
2017-03-15T00:21:17.551Z,19.54
2017-03-15T00:22:27.803Z,19.47
2017-03-15T00:23:38.050Z,19.51
2017-03-15T00:24:47.982Z,19.58
2017-03-15T00:25:58.232Z,19.54
2017-03-15T00:27:08.483Z,19.47
2017-03-15T00:28:18.099Z,19.51
2017-03-15T00:29:28.364Z,19.51
2017-03-15T00:30:38.639Z,19.48
2017-03-15T00:31:48.573Z,19.47
2017-03-15T00:32:58.826Z,19.51
2017-03-15T00:34:09.071Z,19.47
2017-03-15T00:35:19.314Z,19.5
2017-03-15T00:36:28.942Z,19.46
2017-03-15T00:37:39.190Z,19.5
2017-03-15T00:38:49.437Z,19.47
2017-03-15T00:39:59.380Z,19.5
2017-03-15T00:41:09.316Z,19.43
2017-03-15T00:42:19.255Z,19.5
2017-03-15T00:43:29.202Z,19.46
2017-03-15T00:44:39.143Z,19.46
2017-03-15T00:45:48.777Z,19.48
2017-03-15T00:46:58.714Z,19.51
2017-03-15T00:48:08.983Z,19.51
2017-03-15T00:49:18.926Z,19.5
2017-03-15T00:50:28.868Z,19.47
2017-03-15T00:51:39.123Z,19.41
2017-03-15T00:52:49.052Z,19.46
2017-03-15T00:53:59.310Z,19.47
2017-03-15T00:55:09.563Z,19.47
2017-03-15T00:56:19.495Z,19.47
2017-03-15T00:57:29.118Z,19.51
2017-03-15T00:58:39.052Z,19.47
2017-03-15T00:59:49.029Z,19.5
2017-03-15T01:00:58.974Z,19.47
2017-03-15T01:02:08.598Z,19.47
2017-03-15T01:03:18.535Z,19.47
2017-03-15T01:04:28.476Z,19.48
2017-03-15T01:05:38.410Z,19.47
2017-03-15T01:06:48.343Z,19.5
2017-03-15T01:07:58.592Z,19.48
2017-03-15T01:09:08.536Z,19.47
2017-03-15T01:10:18.782Z,19.5
2017-03-15T01:11:28.405Z,19.51
2017-03-15T01:12:38.660Z,19.47
2017-03-15T01:13:48.594Z,19.47
2017-03-15T01:14:58.218Z,19.56
2017-03-15T01:16:07.849Z,19.56
2017-03-15T01:17:18.102Z,19.51
2017-03-15T01:18:28.035Z,19.51
2017-03-15T01:19:38.281Z,19.55
2017-03-15T01:20:48.525Z,19.48
2017-03-15T01:21:58.471Z,19.56
2017-03-15T01:23:08.412Z,19.61
2017-03-15T01:24:18.684Z,19.51
2017-03-15T01:25:28.924Z,19.66
2017-03-15T01:26:39.172Z,19.66
2017-03-15T01:27:49.123Z,19.63
2017-03-15T01:28:59.062Z,19.58
2017-03-15T01:30:09.001Z,19.61
2017-03-15T01:31:19.258Z,19.59
2017-03-15T01:32:29.189Z,19.59
2017-03-15T01:33:39.128Z,19.62
2017-03-15T01:34:49.065Z,19.61
2017-03-15T01:35:59.018Z,19.56
2017-03-15T01:37:08.950Z,19.62
2017-03-15T01:38:18.896Z,19.58
2017-03-15T01:39:29.150Z,19.59
2017-03-15T01:40:39.088Z,19.58
2017-03-15T01:41:49.041Z,19.66
2017-03-15T01:42:58.675Z,19.63
2017-03-15T01:44:08.301Z,19.62
2017-03-15T01:45:18.567Z,19.66
2017-03-15T01:46:28.496Z,19.66
2017-03-15T01:47:38.440Z,19.58
2017-03-15T01:48:48.686Z,19.58
2017-03-15T01:49:58.622Z,19.56
2017-03-15T01:51:08.249Z,19.59
2017-03-15T01:52:18.187Z,19.66
2017-03-15T01:53:27.808Z,19.63
2017-03-15T01:54:37.430Z,19.66
2017-03-15T01:55:47.676Z,19.58
2017-03-15T01:56:57.309Z,19.68
2017-03-15T01:58:06.925Z,19.66
2017-03-15T01:59:16.854Z,19.59
2017-03-15T02:00:26.797Z,19.54
2017-03-15T02:01:37.051Z,19.51
2017-03-15T02:02:46.723Z,19.61
2017-03-15T02:03:56.994Z,19.58
2017-03-15T02:05:07.237Z,19.59
2017-03-15T02:06:17.491Z,19.63
2017-03-15T02:07:27.442Z,19.68
2017-03-15T02:08:37.377Z,19.66
2017-03-15T02:09:47.636Z,19.58
2017-03-15T02:10:57.259Z,19.59
2017-03-15T02:12:07.194Z,19.55
2017-03-15T02:13:17.452Z,19.68
2017-03-15T02:14:27.079Z,19.61
2017-03-15T02:15:37.031Z,19.56
2017-03-15T02:16:46.651Z,19.56
2017-03-15T02:17:56.900Z,19.68
2017-03-15T02:19:06.517Z,19.63
2017-03-15T02:20:16.136Z,19.62
2017-03-15T02:21:26.077Z,19.62
2017-03-15T02:22:36.322Z,19.55
2017-03-15T02:23:46.571Z,19.61
2017-03-15T02:24:56.194Z,19.62
2017-03-15T02:26:05.821Z,19.59
2017-03-15T02:27:15.764Z,19.56
2017-03-15T02:28:25.698Z,19.63
2017-03-15T02:29:35.633Z,19.59
2017-03-15T02:30:45.880Z,19.71
2017-03-15T02:31:55.814Z,19.62
2017-03-15T02:33:06.053Z,19.62
2017-03-15T02:34:15.986Z,19.56
2017-03-15T02:35:26.233Z,19.56
2017-03-15T02:36:36.178Z,19.66
2017-03-15T02:37:46.425Z,19.59
2017-03-15T02:38:56.363Z,19.63
2017-03-15T02:40:06.304Z,19.62
2017-03-15T02:41:16.562Z,19.62
2017-03-15T02:42:26.819Z,19.63
2017-03-15T02:43:36.768Z,19.61
2017-03-15T02:44:47.024Z,19.59
2017-03-15T02:45:56.997Z,19.61
2017-03-15T02:47:06.935Z,19.66
2017-03-15T02:48:16.871Z,19.59
2017-03-15T02:49:27.125Z,19.62
2017-03-15T02:50:37.076Z,19.62
2017-03-15T02:51:46.704Z,19.66
2017-03-15T02:52:56.634Z,19.63
2017-03-15T02:54:06.880Z,19.51
2017-03-15T02:55:16.511Z,19.55
2017-03-15T02:56:26.445Z,19.55
2017-03-15T02:57:36.700Z,19.54
2017-03-15T02:58:46.646Z,19.56
2017-03-15T02:59:56.267Z,19.54
2017-03-15T03:01:06.216Z,19.55
2017-03-15T03:02:16.466Z,19.5
2017-03-15T03:03:26.080Z,19.56
2017-03-15T03:04:36.326Z,19.5
2017-03-15T03:05:46.576Z,19.5
2017-03-15T03:06:56.505Z,19.48
2017-03-15T03:08:06.767Z,19.5
2017-03-15T03:09:16.703Z,19.5
2017-03-15T03:10:26.638Z,19.47
2017-03-15T03:11:36.272Z,19.5
2017-03-15T03:12:46.523Z,19.5
2017-03-15T03:13:56.451Z,19.51
2017-03-15T03:15:06.698Z,19.48
2017-03-15T03:16:16.349Z,19.47
2017-03-15T03:17:26.597Z,19.5
2017-03-15T03:18:36.552Z,19.46
2017-03-15T03:19:46.499Z,19.47
2017-03-15T03:20:56.431Z,19.36
2017-03-15T03:22:06.054Z,19.47
2017-03-15T03:23:15.984Z,19.44
2017-03-15T03:24:26.236Z,19.46
2017-03-15T03:25:36.499Z,19.47
2017-03-15T03:26:46.749Z,19.46
2017-03-15T03:27:56.685Z,19.43
2017-03-15T03:29:06.930Z,19.47
2017-03-15T03:30:15.932Z,19.43
2017-03-15T03:31:25.865Z,19.41
2017-03-15T03:32:35.805Z,19.48
2017-03-15T03:33:46.051Z,19.37
2017-03-15T03:34:56.308Z,19.43
2017-03-15T03:36:06.240Z,19.43
2017-03-15T03:37:15.855Z,19.41
2017-03-15T03:38:26.095Z,19.39
2017-03-15T03:39:36.035Z,19.4
2017-03-15T03:40:46.279Z,19.39
2017-03-15T03:41:56.527Z,19.43
2017-03-15T03:43:06.462Z,19.37
2017-03-15T03:44:16.399Z,19.46
2017-03-15T03:45:26.653Z,19.36
2017-03-15T03:46:36.589Z,19.37
2017-03-15T03:47:46.847Z,19.41
2017-03-15T03:48:57.091Z,19.46
2017-03-15T03:50:07.350Z,19.51
2017-03-15T03:51:17.302Z,19.56
2017-03-15T03:52:27.238Z,19.48
2017-03-15T03:53:37.179Z,19.66
2017-03-15T03:54:47.432Z,19.62
2017-03-15T03:55:57.070Z,19.59
2017-03-15T03:57:07.322Z,19.61
2017-03-15T03:58:17.253Z,19.63
2017-03-15T03:59:27.195Z,19.65
2017-03-15T04:00:37.140Z,19.61
2017-03-15T04:01:46.759Z,19.65
2017-03-15T04:02:57.004Z,19.59
2017-03-15T04:04:07.251Z,19.59
2017-03-15T04:05:17.194Z,19.62
2017-03-15T04:06:27.124Z,19.62
2017-03-15T04:07:37.075Z,19.62
2017-03-15T04:08:47.341Z,19.62
2017-03-15T04:09:57.588Z,19.62
2017-03-15T04:11:07.831Z,19.61
2017-03-15T04:12:17.766Z,19.63
2017-03-15T04:13:28.016Z,19.61
2017-03-15T04:14:38.271Z,19.71
2017-03-15T04:15:48.212Z,19.61
2017-03-15T04:16:57.839Z,19.71
2017-03-15T04:18:07.776Z,19.61
2017-03-15T04:19:17.731Z,19.68
2017-03-15T04:20:27.980Z,19.69
2017-03-15T04:21:38.239Z,19.71
2017-03-15T04:22:48.186Z,19.74
2017-03-15T04:23:57.812Z,19.68
2017-03-15T04:25:07.757Z,19.74
2017-03-15T04:26:18.009Z,19.8
2017-03-15T04:27:28.263Z,19.71
2017-03-15T04:28:37.572Z,19.73
2017-03-15T04:29:47.838Z,19.68
2017-03-15T04:30:58.082Z,19.65
2017-03-15T04:32:08.327Z,19.66
2017-03-15T04:33:18.259Z,19.56
2017-03-15T04:34:28.511Z,19.71
2017-03-15T04:35:38.778Z,19.69
2017-03-15T04:36:49.033Z,19.65
2017-03-15T04:37:59.295Z,19.69
2017-03-15T04:39:09.233Z,19.66
2017-03-15T04:40:19.488Z,19.74
2017-03-15T04:41:29.740Z,19.73
2017-03-15T04:42:39.675Z,19.71
2017-03-15T04:43:49.932Z,19.69
2017-03-15T04:45:00.184Z,19.71
2017-03-15T04:46:09.806Z,19.71
2017-03-15T04:47:19.753Z,19.63
2017-03-15T04:48:29.711Z,19.73
2017-03-15T04:49:39.650Z,19.71
2017-03-15T04:50:49.584Z,19.69
2017-03-15T04:51:59.518Z,19.69
2017-03-15T04:53:09.450Z,19.68
2017-03-15T04:54:19.716Z,19.69
2017-03-15T04:55:29.657Z,19.59
2017-03-15T04:56:39.908Z,19.76
2017-03-15T04:57:49.532Z,19.62
2017-03-15T04:58:59.467Z,19.62
2017-03-15T05:00:09.714Z,19.65
2017-03-15T05:01:19.347Z,19.62
2017-03-15T05:02:29.300Z,19.65
2017-03-15T05:03:38.953Z,19.59
2017-03-15T05:04:48.898Z,19.58
2017-03-15T05:05:59.153Z,19.56
2017-03-15T05:07:09.402Z,19.63
2017-03-15T05:08:19.349Z,19.59
2017-03-15T05:09:29.609Z,19.66
2017-03-15T05:10:39.853Z,19.61
2017-03-15T05:11:50.103Z,19.66
2017-03-15T05:13:00.345Z,19.63
2017-03-15T05:14:09.967Z,19.61
2017-03-15T05:15:20.214Z,19.61
2017-03-15T05:16:30.467Z,19.68
2017-03-15T05:17:40.713Z,19.58
2017-03-15T05:18:50.654Z,19.59
2017-03-15T05:20:00.275Z,19.69
2017-03-15T05:21:10.208Z,19.63
2017-03-15T05:22:20.143Z,19.59
2017-03-15T05:23:30.390Z,19.66
2017-03-15T05:24:40.022Z,19.5
2017-03-15T05:25:49.961Z,19.63
2017-03-15T05:26:59.573Z,19.58
2017-03-15T05:28:09.517Z,19.51
2017-03-15T05:29:19.450Z,19.59
2017-03-15T05:30:29.702Z,19.63
2017-03-15T05:31:39.947Z,19.58
2017-03-15T05:32:49.250Z,19.5
2017-03-15T05:33:59.497Z,19.56
2017-03-15T05:35:09.756Z,19.54
2017-03-15T05:36:19.689Z,19.66
2017-03-15T05:37:29.634Z,19.59
2017-03-15T05:38:39.250Z,19.63
2017-03-15T05:39:49.181Z,19.58
2017-03-15T05:40:59.120Z,19.56
2017-03-15T05:42:08.737Z,19.63
2017-03-15T05:43:18.984Z,19.59
2017-03-15T05:44:28.611Z,19.54
2017-03-15T05:45:38.861Z,19.65
2017-03-15T05:46:49.110Z,19.59
2017-03-15T05:47:59.359Z,19.66
2017-03-15T05:49:08.668Z,19.66
2017-03-15T05:50:18.605Z,19.62
2017-03-15T05:51:28.859Z,19.62
2017-03-15T05:52:38.796Z,19.65
2017-03-15T05:53:48.741Z,19.61
2017-03-15T05:54:58.681Z,19.59
2017-03-15T05:56:08.310Z,19.59
2017-03-15T05:57:18.556Z,19.62
2017-03-15T05:58:28.808Z,19.55
2017-03-15T05:59:39.057Z,19.59
2017-03-15T06:00:49.305Z,19.68
2017-03-15T06:01:59.553Z,19.59
2017-03-15T06:03:09.491Z,19.61
2017-03-15T06:04:19.424Z,19.63
2017-03-15T06:05:29.696Z,19.63
2017-03-15T06:06:39.630Z,19.61
2017-03-15T06:07:49.881Z,19.63
2017-03-15T06:08:59.818Z,19.63
2017-03-15T06:10:10.069Z,19.61
2017-03-15T06:11:20.349Z,19.66
2017-03-15T06:12:30.010Z,19.62
2017-03-15T06:13:40.280Z,19.66
2017-03-15T06:14:50.218Z,19.62
2017-03-15T06:16:00.469Z,19.62
2017-03-15T06:17:10.720Z,19.61
2017-03-15T06:18:20.968Z,19.62
2017-03-15T06:19:30.897Z,19.63
2017-03-15T06:20:40.842Z,19.59
2017-03-15T06:21:50.782Z,19.63
2017-03-15T06:23:00.402Z,19.56
2017-03-15T06:24:10.338Z,19.62
2017-03-15T06:25:20.271Z,19.69
2017-03-15T06:26:30.210Z,19.62
2017-03-15T06:27:40.136Z,19.62
2017-03-15T06:28:50.074Z,19.59
2017-03-15T06:29:59.711Z,19.61
2017-03-15T06:31:09.965Z,19.61
2017-03-15T06:32:20.216Z,19.65
2017-03-15T06:33:29.838Z,19.65
2017-03-15T06:34:39.771Z,19.62
2017-03-15T06:35:49.700Z,19.63
2017-03-15T06:36:59.944Z,19.56
2017-03-15T06:38:09.883Z,19.63
2017-03-15T06:39:20.131Z,19.63
2017-03-15T06:40:30.380Z,19.65
2017-03-15T06:41:40.009Z,19.71
2017-03-15T06:42:49.949Z,19.66
2017-03-15T06:43:59.573Z,19.69
2017-03-15T06:45:09.820Z,19.77
2017-03-15T06:46:20.061Z,19.65
2017-03-15T06:47:30.311Z,19.77
2017-03-15T06:48:40.242Z,19.84
2017-03-15T06:49:50.179Z,19.81
2017-03-15T06:51:00.118Z,19.78
2017-03-15T06:52:10.061Z,19.83
2017-03-15T06:53:19.694Z,19.78
2017-03-15T06:54:29.324Z,19.78
2017-03-15T06:55:39.572Z,19.83
2017-03-15T06:56:49.839Z,19.73
2017-03-15T06:57:59.772Z,19.77
2017-03-15T06:59:09.712Z,19.78
2017-03-15T07:00:19.963Z,19.76
2017-03-15T07:01:29.603Z,19.8
2017-03-15T07:02:39.546Z,19.8
2017-03-15T07:03:49.825Z,19.81
2017-03-15T07:04:59.765Z,19.8
2017-03-15T07:06:09.392Z,19.78
2017-03-15T07:07:19.637Z,19.81
2017-03-15T07:08:29.896Z,19.8
2017-03-15T07:09:39.530Z,19.84
2017-03-15T07:10:49.782Z,19.81
2017-03-15T07:11:59.715Z,19.81
2017-03-15T07:13:09.660Z,19.81
2017-03-15T07:14:19.922Z,19.86
2017-03-15T07:15:29.860Z,19.77
2017-03-15T07:16:40.100Z,19.76
2017-03-15T07:17:50.033Z,19.8
2017-03-15T07:18:59.972Z,19.77
2017-03-15T07:20:10.217Z,19.8
2017-03-15T07:21:20.472Z,19.8
2017-03-15T07:22:30.729Z,19.78
2017-03-15T07:23:40.661Z,19.8
2017-03-15T07:24:50.291Z,19.8
2017-03-15T07:26:00.538Z,19.87
2017-03-15T07:27:10.792Z,19.8
2017-03-15T07:28:20.737Z,19.81
2017-03-15T07:29:30.681Z,19.81
2017-03-15T07:30:40.620Z,19.8
2017-03-15T07:31:50.237Z,19.81
2017-03-15T07:33:00.188Z,19.78
2017-03-15T07:34:10.443Z,19.78
2017-03-15T07:35:20.693Z,19.78
2017-03-15T07:36:30.634Z,19.77
2017-03-15T07:37:40.573Z,19.77
2017-03-15T07:38:50.521Z,19.81
2017-03-15T07:40:00.770Z,19.81
2017-03-15T07:41:10.737Z,19.8
2017-03-15T07:42:20.677Z,19.8
2017-03-15T07:43:30.613Z,19.84
2017-03-15T07:44:40.541Z,19.81
2017-03-15T07:45:50.783Z,19.8
2017-03-15T07:47:00.720Z,19.84
2017-03-15T07:48:10.362Z,19.84
2017-03-15T07:49:20.298Z,19.84
2017-03-15T07:50:30.236Z,19.83
2017-03-15T07:51:40.185Z,19.76
2017-03-15T07:52:50.121Z,19.83
2017-03-15T07:54:00.067Z,19.84
2017-03-15T07:55:10.007Z,19.8
2017-03-15T07:56:19.629Z,19.84
2017-03-15T07:57:29.872Z,19.86
2017-03-15T07:58:39.808Z,19.83
2017-03-15T07:59:49.746Z,19.83
2017-03-15T08:00:59.686Z,19.83
2017-03-15T08:02:09.935Z,19.78
2017-03-15T08:03:20.189Z,19.83
2017-03-15T08:04:29.847Z,19.81
2017-03-15T08:05:40.090Z,19.78
2017-03-15T08:06:49.722Z,19.8
2017-03-15T08:07:59.650Z,19.78
2017-03-15T08:09:09.895Z,19.87
2017-03-15T08:10:19.826Z,19.87
2017-03-15T08:11:29.452Z,19.84
2017-03-15T08:12:39.707Z,19.87
2017-03-15T08:13:49.954Z,19.83
2017-03-15T08:14:59.886Z,19.78
2017-03-15T08:16:09.820Z,19.87
2017-03-15T08:17:19.443Z,19.92
2017-03-15T08:18:29.374Z,19.91
2017-03-15T08:19:39.627Z,19.8
2017-03-15T08:20:49.878Z,19.94
2017-03-15T08:21:59.504Z,19.95
2017-03-15T08:23:09.756Z,19.96
2017-03-15T08:24:19.700Z,20.01
2017-03-15T08:25:29.669Z,19.94
2017-03-15T08:26:39.911Z,19.98
2017-03-15T08:27:49.846Z,19.98
2017-03-15T08:28:59.782Z,19.98
2017-03-15T08:30:09.721Z,19.99
2017-03-15T08:31:19.343Z,19.98
2017-03-15T08:32:28.650Z,19.99
2017-03-15T08:33:38.281Z,19.95
2017-03-15T08:34:48.209Z,19.95
2017-03-15T08:35:58.147Z,19.95
2017-03-15T08:37:07.454Z,19.98
2017-03-15T08:38:17.698Z,19.99
2017-03-15T08:39:27.659Z,19.94
2017-03-15T08:40:37.592Z,19.91
2017-03-15T08:41:47.528Z,19.96
2017-03-15T08:42:57.472Z,19.95
2017-03-15T08:44:07.716Z,19.96
2017-03-15T08:45:17.349Z,19.98
2017-03-15T08:46:27.600Z,19.95
2017-03-15T08:47:37.541Z,19.98
2017-03-15T08:48:47.469Z,19.98
2017-03-15T08:49:57.717Z,19.99
2017-03-15T08:51:07.657Z,19.96
2017-03-15T08:52:17.589Z,19.92
2017-03-15T08:53:27.838Z,19.94
2017-03-15T08:54:38.086Z,19.99
2017-03-15T08:55:47.389Z,19.98
2017-03-15T08:56:56.705Z,19.99
2017-03-15T08:58:06.324Z,20.02
2017-03-15T08:59:16.568Z,19.98
2017-03-15T09:00:26.493Z,19.92
2017-03-15T09:01:36.736Z,19.99
2017-03-15T09:02:46.050Z,19.92
2017-03-15T09:03:55.668Z,19.95
2017-03-15T09:05:05.590Z,19.95
2017-03-15T09:06:15.514Z,20.03
2017-03-15T09:07:25.768Z,20.06
2017-03-15T09:08:35.693Z,19.95
2017-03-15T09:09:45.938Z,19.95
2017-03-15T09:10:55.862Z,19.88
2017-03-15T09:12:05.791Z,19.95
2017-03-15T09:13:15.723Z,20.02
2017-03-15T09:14:25.969Z,20.02
2017-03-15T09:15:36.215Z,19.94
2017-03-15T09:16:46.462Z,19.96
2017-03-15T09:17:56.711Z,19.95
2017-03-15T09:19:06.323Z,19.94
2017-03-15T09:20:16.801Z,20.01
2017-03-15T09:21:26.736Z,19.94
2017-03-15T09:22:36.051Z,19.98
2017-03-15T09:23:45.680Z,19.92
2017-03-15T09:24:55.298Z,20.01
2017-03-15T09:26:05.234Z,19.98
2017-03-15T09:27:15.483Z,20.02
2017-03-15T09:28:25.098Z,19.98
2017-03-15T09:29:35.346Z,20.02
2017-03-15T09:30:45.598Z,20.03
2017-03-15T09:31:55.853Z,20.03
2017-03-15T09:33:06.104Z,20.03
2017-03-15T09:34:16.041Z,19.94
2017-03-15T09:35:25.973Z,20.05
2017-03-15T09:36:35.910Z,20.13
2017-03-15T09:37:45.850Z,19.99
2017-03-15T09:38:55.525Z,19.92
2017-03-15T09:40:05.146Z,19.92
2017-03-15T09:41:15.400Z,19.98
2017-03-15T09:42:25.330Z,19.98
2017-03-15T09:43:35.265Z,19.94
2017-03-15T09:44:45.510Z,19.98
2017-03-15T09:45:55.444Z,20.06
2017-03-15T09:47:05.381Z,19.96
2017-03-15T09:48:15.629Z,20.08
2017-03-15T09:49:25.560Z,20.02
2017-03-15T09:50:35.485Z,20.06
2017-03-15T09:51:45.422Z,19.95
2017-03-15T09:52:55.662Z,19.95
2017-03-15T09:54:05.601Z,19.99
2017-03-15T09:55:15.849Z,20.06
2017-03-15T09:56:25.779Z,20.08
2017-03-15T09:57:35.707Z,20.02
2017-03-15T09:58:45.323Z,20.06
2017-03-15T09:59:55.243Z,20.02
2017-03-15T10:01:05.480Z,20.01
2017-03-15T10:02:15.415Z,19.92
2017-03-15T10:03:25.031Z,19.99
2017-03-15T10:04:34.959Z,19.91
2017-03-15T10:05:44.262Z,19.98
2017-03-15T10:06:54.529Z,19.94
2017-03-15T10:08:03.859Z,20.02
2017-03-15T10:09:13.794Z,19.99
2017-03-15T10:10:23.732Z,20.03
2017-03-15T10:11:33.666Z,19.96
2017-03-15T10:12:43.912Z,19.99
2017-03-15T10:13:53.842Z,20.01
2017-03-15T10:15:03.459Z,20.01
2017-03-15T10:16:13.078Z,19.95
2017-03-15T10:17:23.327Z,19.94
2017-03-15T10:18:33.258Z,19.95
2017-03-15T10:19:43.497Z,20.01
2017-03-15T10:20:53.422Z,19.99
2017-03-15T10:22:03.663Z,19.98
2017-03-15T10:23:13.589Z,19.94
2017-03-15T10:24:23.829Z,19.99
2017-03-15T10:25:34.074Z,20.01
2017-03-15T10:26:44.034Z,19.98
2017-03-15T10:27:53.968Z,19.99
2017-03-15T10:29:03.274Z,19.94
2017-03-15T10:30:12.901Z,19.99
2017-03-15T10:31:22.525Z,20.01
2017-03-15T10:32:32.704Z,19.95
2017-03-15T10:33:42.646Z,19.98
2017-03-15T10:34:52.593Z,19.95
2017-03-15T10:36:02.526Z,20.01
2017-03-15T10:37:12.796Z,19.95
2017-03-15T10:38:22.415Z,19.95
2017-03-15T10:39:32.379Z,19.98
2017-03-15T10:40:42.305Z,19.98
2017-03-15T10:41:52.544Z,19.96
2017-03-15T10:43:02.790Z,19.98
2017-03-15T10:44:12.717Z,19.92
2017-03-15T10:45:22.978Z,19.96
2017-03-15T10:46:32.907Z,19.95
2017-03-15T10:47:42.838Z,19.96
2017-03-15T10:48:52.763Z,19.98
2017-03-15T10:50:02.693Z,19.96
2017-03-15T10:51:12.624Z,19.94
2017-03-15T10:52:22.886Z,19.99
2017-03-15T10:53:32.506Z,19.98
2017-03-15T10:54:42.750Z,19.98
2017-03-15T10:55:52.681Z,19.95
2017-03-15T10:57:02.613Z,19.98
2017-03-15T10:58:12.538Z,19.99
2017-03-15T10:59:22.472Z,19.98
2017-03-15T11:00:32.718Z,19.92
2017-03-15T11:01:42.343Z,19.98
2017-03-15T11:02:52.280Z,20.01
2017-03-15T11:04:01.582Z,19.98
2017-03-15T11:05:11.825Z,19.96
2017-03-15T11:06:21.758Z,19.92
2017-03-15T11:07:31.699Z,19.94
2017-03-15T11:08:41.323Z,19.98
2017-03-15T11:09:51.566Z,19.92
2017-03-15T11:11:01.187Z,20.03
2017-03-15T11:12:11.124Z,19.92
2017-03-15T11:13:20.737Z,19.96
2017-03-15T11:14:30.975Z,20.03
2017-03-15T11:15:40.589Z,19.98
2017-03-15T11:16:49.891Z,19.95
2017-03-15T11:17:59.503Z,19.98
2017-03-15T11:19:09.152Z,19.96
2017-03-15T11:20:19.078Z,20.03
2017-03-15T11:21:29.009Z,19.98
2017-03-15T11:22:38.936Z,19.99
2017-03-15T11:23:48.557Z,19.95
2017-03-15T11:24:58.487Z,19.95
2017-03-15T11:26:08.412Z,19.92
2017-03-15T11:27:18.650Z,20.01
2017-03-15T11:28:28.577Z,19.95
2017-03-15T11:29:38.209Z,19.95
2017-03-15T11:30:48.175Z,19.96
2017-03-15T11:31:58.437Z,20.03
2017-03-15T11:33:08.365Z,19.96
2017-03-15T11:34:18.612Z,19.99
2017-03-15T11:35:28.851Z,19.96
2017-03-15T11:36:38.468Z,19.96
2017-03-15T11:37:48.394Z,19.99
2017-03-15T11:38:58.013Z,19.98
2017-03-15T11:40:07.306Z,19.94
2017-03-15T11:41:17.230Z,19.92
2017-03-15T11:42:27.155Z,19.95
2017-03-15T11:43:37.090Z,19.95
2017-03-15T11:44:47.329Z,20.03
2017-03-15T11:45:57.252Z,19.95
2017-03-15T11:47:07.181Z,19.96
2017-03-15T11:48:17.104Z,19.91
2017-03-15T11:49:27.353Z,19.95
2017-03-15T11:50:36.655Z,19.96
2017-03-15T11:51:46.275Z,19.98
2017-03-15T11:52:56.510Z,19.98
2017-03-15T11:54:05.805Z,19.95
2017-03-15T11:55:15.739Z,20.08
2017-03-15T11:56:25.667Z,20.02
2017-03-15T11:57:35.604Z,19.98
2017-03-15T11:58:45.530Z,20.02
2017-03-15T11:59:55.457Z,19.95
2017-03-15T12:01:05.387Z,19.98
2017-03-15T12:02:15.314Z,20.03
2017-03-15T12:03:25.577Z,19.98
2017-03-15T12:04:35.816Z,19.95
2017-03-15T12:05:45.744Z,20.01
2017-03-15T12:06:55.675Z,19.95
2017-03-15T12:08:05.914Z,19.91
2017-03-15T12:09:15.534Z,19.92
2017-03-15T12:10:25.142Z,19.98
2017-03-15T12:11:35.379Z,19.95
2017-03-15T12:12:45.616Z,19.96
2017-03-15T12:13:55.554Z,19.94
2017-03-15T12:15:05.493Z,19.99
2017-03-15T12:16:15.413Z,20.01
2017-03-15T12:17:25.023Z,19.94
2017-03-15T12:18:34.943Z,19.95
2017-03-15T12:19:44.868Z,19.94
2017-03-15T12:20:54.171Z,20.01
2017-03-15T12:22:04.088Z,19.94
2017-03-15T12:23:14.324Z,20.02
2017-03-15T12:24:24.246Z,19.98
2017-03-15T12:25:33.862Z,19.98
2017-03-15T12:26:43.795Z,20.03
2017-03-15T12:27:53.402Z,19.96
2017-03-15T12:29:03.331Z,19.98
2017-03-15T12:30:13.255Z,20.11
2017-03-15T12:31:23.176Z,20.1
2017-03-15T12:32:33.417Z,20.14
2017-03-15T12:33:43.344Z,20.18
2017-03-15T12:34:53.580Z,20.11
2017-03-15T12:36:03.194Z,20.06
2017-03-15T12:37:13.437Z,20.11
2017-03-15T12:38:23.375Z,20.2
2017-03-15T12:39:33.311Z,20.16
2017-03-15T12:40:43.555Z,20.17
2017-03-15T12:41:53.797Z,20.16
2017-03-15T12:43:03.751Z,20.18
2017-03-15T12:44:13.724Z,20.2
2017-03-15T12:45:23.342Z,20.18
2017-03-15T12:46:33.274Z,20.14
2017-03-15T12:47:43.509Z,20.16
2017-03-15T12:48:53.744Z,20.16
2017-03-15T12:50:03.039Z,20.17
2017-03-15T12:51:12.336Z,20.17
2017-03-15T12:52:22.572Z,20.16
2017-03-15T12:53:32.507Z,20.13
2017-03-15T12:54:42.432Z,20.17
2017-03-15T12:55:52.671Z,20.14
2017-03-15T12:57:02.001Z,20.14
2017-03-15T12:58:11.299Z,20.16
2017-03-15T12:59:21.249Z,20.17
2017-03-15T13:00:30.866Z,20.17
2017-03-15T13:01:40.792Z,20.17
2017-03-15T13:02:50.397Z,20.13
2017-03-15T13:04:00.318Z,20.14
2017-03-15T13:05:09.616Z,20.2
2017-03-15T13:06:19.549Z,20.23
2017-03-15T13:07:29.781Z,20.29
2017-03-15T13:08:39.088Z,20.28
2017-03-15T13:09:48.703Z,20.29
2017-03-15T13:10:58.322Z,20.28
2017-03-15T13:12:07.931Z,20.26
2017-03-15T13:13:17.543Z,20.24
2017-03-15T13:14:27.777Z,20.23
2017-03-15T13:15:38.019Z,20.31
2017-03-15T13:16:47.945Z,20.29
2017-03-15T13:17:57.870Z,20.23
2017-03-15T13:19:07.811Z,20.23
2017-03-15T13:20:18.054Z,20.26
2017-03-15T13:21:27.358Z,20.28
2017-03-15T13:22:37.595Z,20.28
2017-03-15T13:23:47.208Z,20.26
2017-03-15T13:24:57.141Z,20.26
2017-03-15T13:26:06.750Z,20.29
2017-03-15T13:27:16.369Z,20.29
2017-03-15T13:28:26.610Z,20.33
2017-03-15T13:29:36.220Z,20.23
2017-03-15T13:30:46.144Z,20.31
2017-03-15T13:31:56.382Z,20.32
2017-03-15T13:33:05.997Z,20.33
2017-03-15T13:34:15.610Z,20.33
2017-03-15T13:35:25.847Z,20.33
2017-03-15T13:36:36.116Z,20.32
2017-03-15T13:37:46.359Z,20.31
2017-03-15T13:38:56.302Z,20.33
2017-03-15T13:40:06.541Z,20.31
2017-03-15T13:41:16.463Z,20.31
2017-03-15T13:42:26.080Z,20.31
2017-03-15T13:43:36.319Z,20.31
2017-03-15T13:44:45.937Z,20.35
2017-03-15T13:45:56.182Z,20.42
2017-03-15T13:47:06.106Z,20.47
2017-03-15T13:48:16.029Z,20.47
2017-03-15T13:49:25.965Z,20.47
2017-03-15T13:50:35.576Z,20.42
2017-03-15T13:51:45.193Z,20.41
2017-03-15T13:52:54.813Z,20.47
2017-03-15T13:54:04.738Z,20.48
2017-03-15T13:55:14.669Z,20.38
2017-03-15T13:56:24.911Z,20.39
2017-03-15T13:57:34.844Z,20.35
2017-03-15T13:58:44.453Z,20.47
2017-03-15T13:59:53.443Z,20.43
2017-03-15T14:01:03.058Z,20.48
2017-03-15T14:02:12.365Z,20.57
2017-03-15T14:03:22.293Z,20.51
2017-03-15T14:04:32.538Z,20.42
2017-03-15T14:05:42.158Z,20.42
2017-03-15T14:06:52.081Z,20.48
2017-03-15T14:08:02.013Z,20.43
2017-03-15T14:09:11.633Z,20.47
2017-03-15T14:10:21.566Z,20.51
2017-03-15T14:11:31.806Z,20.47
2017-03-15T14:12:41.102Z,20.48
2017-03-15T14:13:51.341Z,20.54
2017-03-15T14:15:01.584Z,20.52
2017-03-15T14:16:11.515Z,20.43
2017-03-15T14:17:21.440Z,20.51
2017-03-15T14:18:31.689Z,20.48
2017-03-15T14:19:41.933Z,20.57
2017-03-15T14:20:51.877Z,20.59
2017-03-15T14:22:01.182Z,20.64
2017-03-15T14:23:11.113Z,20.61
2017-03-15T14:24:20.719Z,20.57
2017-03-15T14:25:30.643Z,20.64
2017-03-15T14:26:40.889Z,20.59
2017-03-15T14:27:51.129Z,20.77
2017-03-15T14:29:01.074Z,20.72
2017-03-15T14:30:10.373Z,20.72
2017-03-15T14:31:20.616Z,20.76
2017-03-15T14:32:30.858Z,20.76
2017-03-15T14:33:40.788Z,20.69
2017-03-15T14:34:50.716Z,20.77
2017-03-15T14:36:00.330Z,20.79
2017-03-15T14:37:09.949Z,20.73
2017-03-15T14:38:20.213Z,20.76
2017-03-15T14:39:29.827Z,20.74
2017-03-15T14:40:39.779Z,20.77
2017-03-15T14:41:50.025Z,20.82
2017-03-15T14:42:59.647Z,20.76
2017-03-15T14:44:08.947Z,20.82
2017-03-15T14:45:18.563Z,20.76
2017-03-15T14:46:28.806Z,20.74
2017-03-15T14:47:38.728Z,20.79
2017-03-15T14:48:48.965Z,20.77
2017-03-15T14:49:58.892Z,20.82
2017-03-15T14:51:09.129Z,20.77
2017-03-15T14:52:19.056Z,20.79
2017-03-15T14:53:29.298Z,20.66
2017-03-15T14:54:39.537Z,20.74
2017-03-15T14:55:49.777Z,20.76
2017-03-15T14:56:59.081Z,20.74
2017-03-15T14:58:08.698Z,20.73
2017-03-15T14:59:17.998Z,20.74
2017-03-15T15:00:27.607Z,20.7
2017-03-15T15:01:36.904Z,20.74
2017-03-15T15:02:46.512Z,20.74